Date,TemperatureHighF,TemperatureAvgF,TemperatureLowF,DewpointHighF,DewpointAvgF,DewpointLowF,HumidityHigh,HumidityAvg,HumidityLow,PressureMaxIn,PressureMinIn,WindSpeedMaxMPH,WindSpeedAvgMPH,GustSpeedMaxMPH,PrecipitationSumIn
2013-5-1,84.0,72.0,58.6,60.0,55.6,49.0,90,60,31,30.08,29.91,15,4,17,0.00
2013-5-2,65.2,55.3,44.5,55.0,46.0,38.0,81,71,60,30.15,30.06,25,9,32,0.00
2013-5-3,54.1,46.7,41.2,51.0,44.3,38.0,96,91,82,30.09,29.91,18,10,25,0.10
2013-5-4,73.1,60.4,50.5,54.0,51.2,49.0,94,74,47,30.00,29.90,7,3,19,0.00
2013-5-5,73.1,60.4,48.7,53.0,46.4,43.0,90,63,35,30.00,29.91,14,6,23,0.00
2013-5-6,73.7,62.3,53.6,46.0,41.6,36.0,73,50,26,29.99,29.92,15,5,17,0.00
2013-5-7,76.8,63.4,48.8,50.0,43.6,39.0,72,51,30,30.01,29.93,11,3,16,0.00
2013-5-8,81.1,67.1,50.5,54.0,47.9,42.0,84,54,25,30.00,29.91,10,2,11,0.00
2013-5-9,73.9,63.2,56.9,61.0,54.9,48.0,97,75,54,29.93,29.78,11,2,20,0.36
2013-5-10,60.8,50.9,45.3,60.0,48.8,43.0,98,92,85,29.96,29.73,17,6,22,0.00
2013-5-11,60.0,51.1,42.9,52.0,40.4,28.0,95,71,32,30.03,29.83,20,5,30,0.00
2013-5-12,55.2,46.3,36.4,33.0,28.9,25.0,77,53,31,30.11,30.04,15,4,21,0.00
2013-5-13,66.7,52.8,35.9,39.0,30.1,23.0,80,47,21,30.17,30.00,9,2,15,0.00
2013-5-14,90.4,72.3,54.4,61.0,50.8,38.0,65,49,27,29.99,29.62,16,7,23,0.00
2013-5-15,85.7,75.1,63.2,59.0,53.5,46.0,68,49,25,29.78,29.63,16,5,20,0.00
2013-5-16,84.6,70.2,54.7,53.0,47.2,41.0,85,49,22,29.92,29.77,8,2,14,0.00
2013-5-17,81.6,67.0,59.7,65.0,56.9,46.0,94,72,48,29.98,29.90,12,2,25,0.35
2013-5-18,80.8,70.0,60.5,65.0,62.9,60.0,98,80,57,30.02,29.90,6,1,12,0.00
2013-5-19,87.8,75.6,62.8,68.0,64.2,61.0,94,71,43,29.92,29.70,12,2,16,0.00
2013-5-20,89.6,78.7,65.0,70.0,63.3,56.0,93,63,33,29.77,29.65,18,8,27,0.76
2013-5-21,80.0,71.2,62.6,69.0,65.0,60.0,95,81,63,29.73,29.61,16,6,21,0.25
2013-5-22,72.4,67.0,61.3,67.0,62.3,56.0,97,85,60,29.72,29.58,11,4,21,1.22
2013-5-23,61.8,51.9,42.2,57.0,47.1,36.0,97,84,70,30.25,29.72,18,9,28,0.04
2013-5-24,60.0,49.2,38.3,38.0,35.9,33.0,86,63,40,30.41,30.25,11,5,18,0.00
2013-5-25,58.0,50.7,43.7,49.0,42.6,36.0,83,74,53,30.38,30.25,9,2,9,0.00
2013-5-26,64.1,55.7,46.3,55.0,47.9,40.0,94,76,51,30.28,30.09,8,2,13,0.02
2013-5-27,65.3,60.4,55.8,63.0,58.8,54.0,98,94,88,30.10,29.80,9,2,15,0.39
2013-5-28,76.7,68.4,60.9,70.0,65.9,60.0,99,91,78,29.85,29.71,16,6,26,0.27
2013-5-29,83.9,73.5,63.2,73.0,66.3,61.0,96,79,61,29.91,29.74,10,5,17,0.16
2013-5-30,84.8,74.8,63.4,72.0,67.5,61.0,95,78,59,29.90,29.75,21,8,34,0.01
2013-5-31,77.1,70.1,63.4,70.0,66.5,62.0,97,88,72,29.84,29.67,16,6,24,0.03